Terminal Aerodrome Forecast
Issued by NWS

Home | Current Version | Previous Version | Text Only | Print | Product List | Glossary On
Versions: 1 2 3 4 5 6 7 8 9 10 11 12 13 14 15 16 17 18 19 20 21 22 23 24
296
FTUS41 KALY 302330
TAFPSF
TAF
KPSF 302330Z 3100/3124 VRB15G35KT 1SM TSRA BKN015CB OVC035
     FM310015 VRB06KT P6SM VCTS SCT015CB OVC035
     FM310100 28005KT P6SM SCT035
      TEMPO 3101/3105 3SM BR FEW004 SCT035
     FM310500 28003KT 2SM BR BKN004
     FM311200 29009G16KT P6SM SKC=

USA.gov is the U.S. government's official web portal to all federal, state and local government web resources and services.